sensor_id;sensor_type;location;lat;lon;timestamp;temperature;humidity
28767;DHT22;15921;52.034;20.650;2023-02-28T00:00:27;-4.40;99.90
28767;DHT22;15921;52.034;20.650;2023-02-28T00:02:53;-4.40;99.90
28767;DHT22;15921;52.034;20.650;2023-02-28T00:05:20;-4.50;99.90
28767;DHT22;15921;52.034;20.650;2023-02-28T00:07:47;-4.50;99.90
28767;DHT22;15921;52.034;20.650;2023-02-28T00:10:16;-4.50;99.90
28767;DHT22;15921;52.034;20.650;2023-02-28T00:12:50;-4.50;99.90
28767;DHT22;15921;52.034;20.650;2023-02-28T00:15:16;-4.50;99.90
28767;DHT22;15921;52.034;20.650;2023-02-28T00:17:42;-4.60;99.90
28767;DHT22;15921;52.034;20.650;2023-02-28T00:20:09;-4.60;99.90
28767;DHT22;15921;52.034;20.650;2023-02-28T00:22:42;-4.70;99.90
28767;DHT22;15921;52.034;20.650;2023-02-28T00:25:10;-4.70;99.90
28767;DHT22;15921;52.034;20.650;2023-02-28T00:27:37;-4.70;99.90
28767;DHT22;15921;52.034;20.650;2023-02-28T00:30:04;-4.70;99.90
28767;DHT22;15921;52.034;20.650;2023-02-28T00:32:30;-4.80;99.90
28767;DHT22;15921;52.034;20.650;2023-02-28T00:34:56;-4.80;99.90
28767;DHT22;15921;52.034;20.650;2023-02-28T00:37:21;-4.80;99.90
28767;DHT22;15921;52.034;20.650;2023-02-28T00:39:47;-4.90;99.90
28767;DHT22;15921;52.034;20.650;2023-02-28T00:42:13;-4.90;99.90
28767;DHT22;15921;52.034;20.650;2023-02-28T00:44:39;-4.90;99.90
28767;DHT22;15921;52.034;20.650;2023-02-28T00:47:04;-4.90;99.90
28767;DHT22;15921;52.034;20.650;2023-02-28T00:49:30;-4.90;99.90
28767;DHT22;15921;52.034;20.650;2023-02-28T00:51:56;-5.00;99.90
28767;DHT22;15921;52.034;20.650;2023-02-28T00:54:22;-5.00;99.90
28767;DHT22;15921;52.034;20.650;2023-02-28T00:56:49;-5.00;99.90
28767;DHT22;15921;52.034;20.650;2023-02-28T00:59:16;-5.00;99.90
28767;DHT22;15921;52.034;20.650;2023-02-28T01:01:42;-5.00;99.90
28767;DHT22;15921;52.034;20.650;2023-02-28T01:04:08;-5.00;99.90
28767;DHT22;15921;52.034;20.650;2023-02-28T01:06:34;-5.10;99.90
28767;DHT22;15921;52.034;20.650;2023-02-28T01:09:00;-5.10;99.90
28767;DHT22;15921;52.034;20.650;2023-02-28T01:11:25;-5.10;99.90
28767;DHT22;15921;52.034;20.650;2023-02-28T01:13:51;-5.10;99.90
28767;DHT22;15921;52.034;20.650;2023-02-28T01:16:17;-5.10;99.90
28767;DHT22;15921;52.034;20.650;2023-02-28T01:18:43;-5.20;99.90
28767;DHT22;15921;52.034;20.650;2023-02-28T01:21:15;-5.20;99.90
28767;DHT22;15921;52.034;20.650;2023-02-28T01:23:41;-5.20;99.90
28767;DHT22;15921;52.034;20.650;2023-02-28T01:26:12;-5.20;99.90
28767;DHT22;15921;52.034;20.650;2023-02-28T01:28:39;-5.30;99.90
28767;DHT22;15921;52.034;20.650;2023-02-28T01:31:04;-5.30;99.90
28767;DHT22;15921;52.034;20.650;2023-02-28T01:33:31;-5.30;99.90
28767;DHT22;15921;52.034;20.650;2023-02-28T01:36:01;-5.30;99.90
28767;DHT22;15921;52.034;20.650;2023-02-28T01:38:27;-5.30;99.90
28767;DHT22;15921;52.034;20.650;2023-02-28T01:40:53;-5.30;99.90
28767;DHT22;15921;52.034;20.650;2023-02-28T01:43:25;-5.40;99.90
28767;DHT22;15921;52.034;20.650;2023-02-28T01:45:53;-5.40;99.90
28767;DHT22;15921;52.034;20.650;2023-02-28T01:48:21;-5.30;99.90
28767;DHT22;15921;52.034;20.650;2023-02-28T01:50:49;-5.40;99.90
28767;DHT22;15921;52.034;20.650;2023-02-28T01:53:19;-5.40;99.90
28767;DHT22;15921;52.034;20.650;2023-02-28T01:55:48;-5.40;99.90
28767;DHT22;15921;52.034;20.650;2023-02-28T01:58:17;-5.40;99.90
28767;DHT22;15921;52.034;20.650;2023-02-28T02:00:43;-5.50;99.90
28767;DHT22;15921;52.034;20.650;2023-02-28T02:03:12;-5.50;99.90
28767;DHT22;15921;52.034;20.650;2023-02-28T02:05:40;-5.50;99.90
28767;DHT22;15921;52.034;20.650;2023-02-28T02:08:11;-5.60;99.90
28767;DHT22;15921;52.034;20.650;2023-02-28T02:10:42;-5.50;99.90
28767;DHT22;15921;52.034;20.650;2023-02-28T02:13:32;-5.50;99.90
28767;DHT22;15921;52.034;20.650;2023-02-28T02:18:47;-5.50;99.90
28767;DHT22;15921;52.034;20.650;2023-02-28T02:21:41;-5.50;99.90
28767;DHT22;15921;52.034;20.650;2023-02-28T02:35:21;-5.60;99.90
28767;DHT22;15921;52.034;20.650;2023-02-28T02:38:11;-5.60;99.90
28767;DHT22;15921;52.034;20.650;2023-02-28T02:40:43;-5.60;99.90
28767;DHT22;15921;52.034;20.650;2023-02-28T02:43:19;-5.50;99.90
28767;DHT22;15921;52.034;20.650;2023-02-28T02:46:00;-5.50;99.90
28767;DHT22;15921;52.034;20.650;2023-02-28T02:48:31;-5.50;99.90
28767;DHT22;15921;52.034;20.650;2023-02-28T02:51:00;-5.60;99.90
28767;DHT22;15921;52.034;20.650;2023-02-28T02:53:33;-5.60;99.90
28767;DHT22;15921;52.034;20.650;2023-02-28T02:56:01;-5.50;99.90
28767;DHT22;15921;52.034;20.650;2023-02-28T02:58:32;-5.60;99.90
28767;DHT22;15921;52.034;20.650;2023-02-28T03:01:02;-5.60;99.90
28767;DHT22;15921;52.034;20.650;2023-02-28T03:03:29;-5.60;99.90
28767;DHT22;15921;52.034;20.650;2023-02-28T03:06:00;-5.60;99.90
28767;DHT22;15921;52.034;20.650;2023-02-28T03:08:27;-5.60;99.90
28767;DHT22;15921;52.034;20.650;2023-02-28T03:10:58;-5.50;99.90
28767;DHT22;15921;52.034;20.650;2023-02-28T03:16:26;-5.50;99.90
28767;DHT22;15921;52.034;20.650;2023-02-28T03:19:03;-5.50;99.90
28767;DHT22;15921;52.034;20.650;2023-02-28T03:21:40;-5.50;99.90
28767;DHT22;15921;52.034;20.650;2023-02-28T03:24:15;-5.50;99.90
28767;DHT22;15921;52.034;20.650;2023-02-28T03:26:47;-5.50;99.90
28767;DHT22;15921;52.034;20.650;2023-02-28T03:29:23;-5.60;99.90
28767;DHT22;15921;52.034;20.650;2023-02-28T03:31:53;-5.60;99.90
28767;DHT22;15921;52.034;20.650;2023-02-28T03:34:34;-5.60;99.90
28767;DHT22;15921;52.034;20.650;2023-02-28T03:37:06;-5.60;99.90
28767;DHT22;15921;52.034;20.650;2023-02-28T03:40:01;-5.60;99.90
28767;DHT22;15921;52.034;20.650;2023-02-28T03:42:31;-5.60;99.90
28767;DHT22;15921;52.034;20.650;2023-02-28T03:45:17;-5.60;99.90
28767;DHT22;15921;52.034;20.650;2023-02-28T03:48:09;-5.60;99.90
28767;DHT22;15921;52.034;20.650;2023-02-28T03:50:43;-5.60;99.90
28767;DHT22;15921;52.034;20.650;2023-02-28T03:53:25;-5.70;99.90
28767;DHT22;15921;52.034;20.650;2023-02-28T03:55:56;-5.70;99.90
28767;DHT22;15921;52.034;20.650;2023-02-28T03:58:26;-5.60;99.90
28767;DHT22;15921;52.034;20.650;2023-02-28T04:01:02;-5.60;99.90
28767;DHT22;15921;52.034;20.650;2023-02-28T04:03:37;-5.60;99.90
28767;DHT22;15921;52.034;20.650;2023-02-28T04:06:04;-5.60;99.90
28767;DHT22;15921;52.034;20.650;2023-02-28T04:08:31;-5.60;99.90
28767;DHT22;15921;52.034;20.650;2023-02-28T04:11:01;-5.60;99.90
28767;DHT22;15921;52.034;20.650;2023-02-28T04:13:29;-5.60;99.90
28767;DHT22;15921;52.034;20.650;2023-02-28T04:15:55;-5.60;99.90
28767;DHT22;15921;52.034;20.650;2023-02-28T04:18:20;-5.60;99.90
28767;DHT22;15921;52.034;20.650;2023-02-28T04:20:46;-5.50;99.90
28767;DHT22;15921;52.034;20.650;2023-02-28T04:23:11;-5.50;99.90
28767;DHT22;15921;52.034;20.650;2023-02-28T04:25:37;-5.50;99.90
28767;DHT22;15921;52.034;20.650;2023-02-28T04:28:05;-5.50;99.90
28767;DHT22;15921;52.034;20.650;2023-02-28T04:30:31;-5.50;99.90
28767;DHT22;15921;52.034;20.650;2023-02-28T04:32:58;-5.50;99.90
28767;DHT22;15921;52.034;20.650;2023-02-28T04:35:23;-5.50;99.90
28767;DHT22;15921;52.034;20.650;2023-02-28T04:37:49;-5.60;99.90
28767;DHT22;15921;52.034;20.650;2023-02-28T04:40:15;-5.60;99.90
28767;DHT22;15921;52.034;20.650;2023-02-28T04:42:40;-5.60;99.90
28767;DHT22;15921;52.034;20.650;2023-02-28T04:45:06;-5.60;99.90
28767;DHT22;15921;52.034;20.650;2023-02-28T04:47:35;-5.60;99.90
28767;DHT22;15921;52.034;20.650;2023-02-28T04:50:01;-5.60;99.90
28767;DHT22;15921;52.034;20.650;2023-02-28T04:52:27;-5.60;99.90
28767;DHT22;15921;52.034;20.650;2023-02-28T04:54:53;-5.60;99.90
28767;DHT22;15921;52.034;20.650;2023-02-28T04:57:19;-5.60;99.90
28767;DHT22;15921;52.034;20.650;2023-02-28T04:59:44;-5.70;99.90
28767;DHT22;15921;52.034;20.650;2023-02-28T05:02:10;-5.70;99.90
28767;DHT22;15921;52.034;20.650;2023-02-28T05:04:36;-5.70;99.90
28767;DHT22;15921;52.034;20.650;2023-02-28T05:07:02;-5.70;99.90
28767;DHT22;15921;52.034;20.650;2023-02-28T05:09:28;-5.70;99.90
28767;DHT22;15921;52.034;20.650;2023-02-28T05:11:54;-5.70;99.90
28767;DHT22;15921;52.034;20.650;2023-02-28T05:14:20;-5.80;99.90
28767;DHT22;15921;52.034;20.650;2023-02-28T05:16:46;-5.80;99.90
28767;DHT22;15921;52.034;20.650;2023-02-28T05:19:12;-5.80;99.90
28767;DHT22;15921;52.034;20.650;2023-02-28T05:21:48;-5.80;99.90
28767;DHT22;15921;52.034;20.650;2023-02-28T05:24:14;-5.90;99.90
28767;DHT22;15921;52.034;20.650;2023-02-28T05:26:41;-5.90;99.90
28767;DHT22;15921;52.034;20.650;2023-02-28T05:29:08;-5.90;99.90
28767;DHT22;15921;52.034;20.650;2023-02-28T05:31:34;-5.90;99.90
28767;DHT22;15921;52.034;20.650;2023-02-28T05:34:00;-6.00;99.90
28767;DHT22;15921;52.034;20.650;2023-02-28T05:36:26;-6.00;99.90
28767;DHT22;15921;52.034;20.650;2023-02-28T05:38:52;-6.00;99.90
28767;DHT22;15921;52.034;20.650;2023-02-28T05:41:18;-5.90;99.90
28767;DHT22;15921;52.034;20.650;2023-02-28T05:43:45;-5.90;99.90
28767;DHT22;15921;52.034;20.650;2023-02-28T05:46:11;-5.90;99.90
28767;DHT22;15921;52.034;20.650;2023-02-28T05:48:38;-5.90;99.90
28767;DHT22;15921;52.034;20.650;2023-02-28T05:51:05;-5.90;99.90
28767;DHT22;15921;52.034;20.650;2023-02-28T05:53:32;-5.90;99.90
28767;DHT22;15921;52.034;20.650;2023-02-28T05:55:58;-5.90;99.90
28767;DHT22;15921;52.034;20.650;2023-02-28T05:58:23;-5.80;99.90
28767;DHT22;15921;52.034;20.650;2023-02-28T06:00:54;-5.80;99.90
28767;DHT22;15921;52.034;20.650;2023-02-28T06:03:20;-5.70;99.90
28767;DHT22;15921;52.034;20.650;2023-02-28T06:05:46;-5.60;99.90
28767;DHT22;15921;52.034;20.650;2023-02-28T06:08:11;-5.50;99.90
28767;DHT22;15921;52.034;20.650;2023-02-28T06:10:37;-5.50;99.90
28767;DHT22;15921;52.034;20.650;2023-02-28T06:13:04;-5.40;99.90
28767;DHT22;15921;52.034;20.650;2023-02-28T06:15:30;-5.30;99.90
28767;DHT22;15921;52.034;20.650;2023-02-28T06:17:56;-5.20;99.90
28767;DHT22;15921;52.034;20.650;2023-02-28T06:20:23;-5.20;99.90
28767;DHT22;15921;52.034;20.650;2023-02-28T06:22:49;-5.10;99.90
28767;DHT22;15921;52.034;20.650;2023-02-28T06:25:17;-5.00;99.90
28767;DHT22;15921;52.034;20.650;2023-02-28T06:27:43;-5.00;99.90
28767;DHT22;15921;52.034;20.650;2023-02-28T06:30:10;-4.90;99.90
28767;DHT22;15921;52.034;20.650;2023-02-28T06:32:36;-4.80;99.90
28767;DHT22;15921;52.034;20.650;2023-02-28T06:35:02;-4.60;99.90
28767;DHT22;15921;52.034;20.650;2023-02-28T06:37:30;-4.50;99.90
28767;DHT22;15921;52.034;20.650;2023-02-28T06:39:55;-4.40;99.90
28767;DHT22;15921;52.034;20.650;2023-02-28T06:42:22;-4.20;99.90
28767;DHT22;15921;52.034;20.650;2023-02-28T06:44:54;-4.10;99.90
28767;DHT22;15921;52.034;20.650;2023-02-28T06:47:20;-4.00;99.90
28767;DHT22;15921;52.034;20.650;2023-02-28T06:49:46;-3.80;99.90
28767;DHT22;15921;52.034;20.650;2023-02-28T06:52:11;-3.60;99.90
28767;DHT22;15921;52.034;20.650;2023-02-28T06:54:37;-3.50;99.90
28767;DHT22;15921;52.034;20.650;2023-02-28T06:57:03;-3.40;99.90
28767;DHT22;15921;52.034;20.650;2023-02-28T06:59:28;-3.20;99.90
28767;DHT22;15921;52.034;20.650;2023-02-28T07:01:54;-3.10;99.90
28767;DHT22;15921;52.034;20.650;2023-02-28T07:04:21;-2.90;99.90
28767;DHT22;15921;52.034;20.650;2023-02-28T07:06:46;-2.80;99.90
28767;DHT22;15921;52.034;20.650;2023-02-28T07:09:12;-2.60;99.90
28767;DHT22;15921;52.034;20.650;2023-02-28T07:11:39;-2.50;99.90
28767;DHT22;15921;52.034;20.650;2023-02-28T07:14:04;-2.30;99.90
28767;DHT22;15921;52.034;20.650;2023-02-28T07:16:30;-2.20;99.90
28767;DHT22;15921;52.034;20.650;2023-02-28T07:18:56;-2.10;99.90
28767;DHT22;15921;52.034;20.650;2023-02-28T07:21:22;-1.90;99.90
28767;DHT22;15921;52.034;20.650;2023-02-28T07:23:48;-1.80;99.90
28767;DHT22;15921;52.034;20.650;2023-02-28T07:26:15;-1.70;99.90
28767;DHT22;15921;52.034;20.650;2023-02-28T07:28:42;-1.60;99.90
28767;DHT22;15921;52.034;20.650;2023-02-28T07:31:09;-1.50;99.90
28767;DHT22;15921;52.034;20.650;2023-02-28T07:33:35;-1.40;99.90
28767;DHT22;15921;52.034;20.650;2023-02-28T07:36:03;-1.30;99.90
28767;DHT22;15921;52.034;20.650;2023-02-28T07:38:29;-1.20;99.90
28767;DHT22;15921;52.034;20.650;2023-02-28T07:40:55;-1.20;99.90
28767;DHT22;15921;52.034;20.650;2023-02-28T07:43:20;-1.10;99.90
28767;DHT22;15921;52.034;20.650;2023-02-28T07:45:46;-1.00;99.90
28767;DHT22;15921;52.034;20.650;2023-02-28T07:48:11;-0.90;99.90
28767;DHT22;15921;52.034;20.650;2023-02-28T07:50:37;-0.80;99.90
28767;DHT22;15921;52.034;20.650;2023-02-28T07:53:03;-0.70;99.90
28767;DHT22;15921;52.034;20.650;2023-02-28T07:55:29;-0.60;99.90
28767;DHT22;15921;52.034;20.650;2023-02-28T07:57:57;-0.50;99.90
28767;DHT22;15921;52.034;20.650;2023-02-28T08:00:23;-0.40;97.50
28767;DHT22;15921;52.034;20.650;2023-02-28T08:02:48;-0.40;98.90
28767;DHT22;15921;52.034;20.650;2023-02-28T08:05:14;-0.30;97.60
28767;DHT22;15921;52.034;20.650;2023-02-28T08:07:40;-0.30;97.10
28767;DHT22;15921;52.034;20.650;2023-02-28T08:10:06;-0.20;97.00
28767;DHT22;15921;52.034;20.650;2023-02-28T08:12:32;-0.10;96.70
28767;DHT22;15921;52.034;20.650;2023-02-28T08:14:58;-0.10;96.20
28767;DHT22;15921;52.034;20.650;2023-02-28T08:17:23;-0.10;95.20
28767;DHT22;15921;52.034;20.650;2023-02-28T08:19:49;0.00;95.80
28767;DHT22;15921;52.034;20.650;2023-02-28T08:22:14;0.00;93.60
28767;DHT22;15921;52.034;20.650;2023-02-28T08:24:43;0.00;94.80
28767;DHT22;15921;52.034;20.650;2023-02-28T08:27:09;0.10;95.40
28767;DHT22;15921;52.034;20.650;2023-02-28T08:29:37;0.20;94.70
28767;DHT22;15921;52.034;20.650;2023-02-28T08:32:04;0.30;93.70
28767;DHT22;15921;52.034;20.650;2023-02-28T08:34:30;0.30;94.00
28767;DHT22;15921;52.034;20.650;2023-02-28T08:36:55;0.30;93.70
28767;DHT22;15921;52.034;20.650;2023-02-28T08:39:21;0.20;93.00
28767;DHT22;15921;52.034;20.650;2023-02-28T08:41:46;0.20;92.50
28767;DHT22;15921;52.034;20.650;2023-02-28T08:44:12;0.30;93.60
28767;DHT22;15921;52.034;20.650;2023-02-28T08:46:38;0.40;92.90
28767;DHT22;15921;52.034;20.650;2023-02-28T08:49:03;0.50;93.10
28767;DHT22;15921;52.034;20.650;2023-02-28T08:51:29;0.60;92.90
28767;DHT22;15921;52.034;20.650;2023-02-28T08:53:58;0.60;92.60
28767;DHT22;15921;52.034;20.650;2023-02-28T08:56:26;0.60;92.50
28767;DHT22;15921;52.034;20.650;2023-02-28T08:58:54;0.70;92.40
28767;DHT22;15921;52.034;20.650;2023-02-28T09:01:28;0.80;91.80
28767;DHT22;15921;52.034;20.650;2023-02-28T09:03:54;0.90;91.10
28767;DHT22;15921;52.034;20.650;2023-02-28T09:06:22;0.90;90.90
28767;DHT22;15921;52.034;20.650;2023-02-28T09:08:48;0.90;91.00
28767;DHT22;15921;52.034;20.650;2023-02-28T09:11:14;0.90;90.60
28767;DHT22;15921;52.034;20.650;2023-02-28T09:13:40;0.90;90.20
28767;DHT22;15921;52.034;20.650;2023-02-28T09:16:08;1.00;90.60
28767;DHT22;15921;52.034;20.650;2023-02-28T09:18:35;1.10;90.70
28767;DHT22;15921;52.034;20.650;2023-02-28T09:21:07;1.20;90.90
28767;DHT22;15921;52.034;20.650;2023-02-28T09:23:33;1.30;90.80
28767;DHT22;15921;52.034;20.650;2023-02-28T09:25:59;1.30;89.40
28767;DHT22;15921;52.034;20.650;2023-02-28T09:28:25;1.40;90.40
28767;DHT22;15921;52.034;20.650;2023-02-28T09:30:53;1.40;89.80
28767;DHT22;15921;52.034;20.650;2023-02-28T09:33:19;1.40;89.90
28767;DHT22;15921;52.034;20.650;2023-02-28T09:35:50;1.40;89.20
28767;DHT22;15921;52.034;20.650;2023-02-28T09:38:16;1.50;88.70
28767;DHT22;15921;52.034;20.650;2023-02-28T09:40:55;1.50;89.80
28767;DHT22;15921;52.034;20.650;2023-02-28T09:43:25;1.60;87.00
28767;DHT22;15921;52.034;20.650;2023-02-28T09:46:03;1.60;87.80
28767;DHT22;15921;52.034;20.650;2023-02-28T09:48:37;1.70;88.00
28767;DHT22;15921;52.034;20.650;2023-02-28T09:51:43;1.80;87.30
28767;DHT22;15921;52.034;20.650;2023-02-28T09:54:18;1.90;87.80
28767;DHT22;15921;52.034;20.650;2023-02-28T09:56:48;1.90;87.00
28767;DHT22;15921;52.034;20.650;2023-02-28T10:02:13;1.80;84.90
28767;DHT22;15921;52.034;20.650;2023-02-28T10:04:53;1.90;84.60
28767;DHT22;15921;52.034;20.650;2023-02-28T10:10:05;1.80;82.80
28767;DHT22;15921;52.034;20.650;2023-02-28T10:12:44;1.70;84.00
28767;DHT22;15921;52.034;20.650;2023-02-28T10:15:14;1.70;84.20
28767;DHT22;15921;52.034;20.650;2023-02-28T10:17:43;1.70;84.90
28767;DHT22;15921;52.034;20.650;2023-02-28T10:20:15;1.90;85.50
28767;DHT22;15921;52.034;20.650;2023-02-28T10:23:04;2.10;84.10
28767;DHT22;15921;52.034;20.650;2023-02-28T10:25:34;2.10;83.50
28767;DHT22;15921;52.034;20.650;2023-02-28T10:28:15;2.20;83.00
28767;DHT22;15921;52.034;20.650;2023-02-28T10:30:47;2.20;82.60
28767;DHT22;15921;52.034;20.650;2023-02-28T10:33:34;2.20;81.10
28767;DHT22;15921;52.034;20.650;2023-02-28T10:36:01;2.10;82.10
28767;DHT22;15921;52.034;20.650;2023-02-28T10:38:36;2.10;82.20
28767;DHT22;15921;52.034;20.650;2023-02-28T10:41:09;2.30;83.10
28767;DHT22;15921;52.034;20.650;2023-02-28T10:43:36;2.30;81.80
28767;DHT22;15921;52.034;20.650;2023-02-28T10:48:57;2.50;83.10
28767;DHT22;15921;52.034;20.650;2023-02-28T10:51:25;2.60;81.10
28767;DHT22;15921;52.034;20.650;2023-02-28T10:53:59;2.50;81.20
28767;DHT22;15921;52.034;20.650;2023-02-28T10:56:26;2.60;82.60
28767;DHT22;15921;52.034;20.650;2023-02-28T10:59:26;2.60;79.80
28767;DHT22;15921;52.034;20.650;2023-02-28T11:01:52;2.60;80.60
28767;DHT22;15921;52.034;20.650;2023-02-28T11:07:15;2.60;80.70
28767;DHT22;15921;52.034;20.650;2023-02-28T11:09:46;2.60;79.50
28767;DHT22;15921;52.034;20.650;2023-02-28T11:12:31;2.40;79.80
28767;DHT22;15921;52.034;20.650;2023-02-28T11:15:01;2.50;79.50
28767;DHT22;15921;52.034;20.650;2023-02-28T11:17:30;2.60;81.00
28767;DHT22;15921;52.034;20.650;2023-02-28T11:20:07;2.80;80.30
28767;DHT22;15921;52.034;20.650;2023-02-28T11:22:43;2.80;79.80
28767;DHT22;15921;52.034;20.650;2023-02-28T11:25:19;2.80;79.40
28767;DHT22;15921;52.034;20.650;2023-02-28T11:27:48;2.90;80.80
28767;DHT22;15921;52.034;20.650;2023-02-28T11:30:35;3.30;81.00
28767;DHT22;15921;52.034;20.650;2023-02-28T11:33:28;3.60;80.60
28767;DHT22;15921;52.034;20.650;2023-02-28T11:36:02;3.80;77.50
28767;DHT22;15921;52.034;20.650;2023-02-28T11:38:28;3.60;76.70
28767;DHT22;15921;52.034;20.650;2023-02-28T11:48:51;3.70;77.60
28767;DHT22;15921;52.034;20.650;2023-02-28T11:51:29;3.80;78.00
28767;DHT22;15921;52.034;20.650;2023-02-28T11:56:48;4.10;76.80
28767;DHT22;15921;52.034;20.650;2023-02-28T12:02:16;4.40;76.50
28767;DHT22;15921;52.034;20.650;2023-02-28T12:10:16;4.70;74.40
28767;DHT22;15921;52.034;20.650;2023-02-28T12:27:17;8.60;65.90
28767;DHT22;15921;52.034;20.650;2023-02-28T12:32:42;12.90;58.10
28767;DHT22;15921;52.034;20.650;2023-02-28T12:40:31;16.10;47.00
28767;DHT22;15921;52.034;20.650;2023-02-28T12:43:09;15.50;47.40
28767;DHT22;15921;52.034;20.650;2023-02-28T12:45:52;15.70;48.00
28767;DHT22;15921;52.034;20.650;2023-02-28T12:48:27;16.20;45.80
28767;DHT22;15921;52.034;20.650;2023-02-28T12:50:55;16.20;47.90
28767;DHT22;15921;52.034;20.650;2023-02-28T12:53:45;17.30;47.60
28767;DHT22;15921;52.034;20.650;2023-02-28T13:07:45;17.60;43.50
28767;DHT22;15921;52.034;20.650;2023-02-28T13:10:15;17.60;43.30
28767;DHT22;15921;52.034;20.650;2023-02-28T13:12:50;17.00;43.60
28767;DHT22;15921;52.034;20.650;2023-02-28T13:15:25;17.00;45.00
28767;DHT22;15921;52.034;20.650;2023-02-28T13:17:55;18.30;43.80
28767;DHT22;15921;52.034;20.650;2023-02-28T13:20:29;18.60;42.20
28767;DHT22;15921;52.034;20.650;2023-02-28T13:22:55;18.30;41.50
28767;DHT22;15921;52.034;20.650;2023-02-28T13:27:52;17.70;41.80
28767;DHT22;15921;52.034;20.650;2023-02-28T13:38:46;15.00;45.40
28767;DHT22;15921;52.034;20.650;2023-02-28T13:49:26;14.10;45.10
28767;DHT22;15921;52.034;20.650;2023-02-28T14:05:06;11.80;50.60
28767;DHT22;15921;52.034;20.650;2023-02-28T14:07:58;11.30;51.50
28767;DHT22;15921;52.034;20.650;2023-02-28T14:10:46;11.30;51.90
28767;DHT22;15921;52.034;20.650;2023-02-28T14:13:36;11.90;50.80
28767;DHT22;15921;52.034;20.650;2023-02-28T14:16:00;12.00;50.80
28767;DHT22;15921;52.034;20.650;2023-02-28T14:18:32;13.00;49.40
28767;DHT22;15921;52.034;20.650;2023-02-28T14:21:25;13.70;47.70
28767;DHT22;15921;52.034;20.650;2023-02-28T14:27:37;12.60;48.60
28767;DHT22;15921;52.034;20.650;2023-02-28T14:36:35;14.50;47.10
28767;DHT22;15921;52.034;20.650;2023-02-28T14:39:11;13.40;47.10
28767;DHT22;15921;52.034;20.650;2023-02-28T14:41:40;12.80;49.30
28767;DHT22;15921;52.034;20.650;2023-02-28T14:44:21;13.20;48.00
28767;DHT22;15921;52.034;20.650;2023-02-28T14:46:59;13.90;48.30
28767;DHT22;15921;52.034;20.650;2023-02-28T14:49:36;13.50;48.10
28767;DHT22;15921;52.034;20.650;2023-02-28T14:52:22;13.00;48.30
28767;DHT22;15921;52.034;20.650;2023-02-28T14:54:56;12.90;49.50
28767;DHT22;15921;52.034;20.650;2023-02-28T14:57:28;12.80;49.40
28767;DHT22;15921;52.034;20.650;2023-02-28T15:00:06;13.20;49.30
28767;DHT22;15921;52.034;20.650;2023-02-28T15:02:38;13.40;49.00
28767;DHT22;15921;52.034;20.650;2023-02-28T15:07:36;12.70;49.20
28767;DHT22;15921;52.034;20.650;2023-02-28T15:15:16;11.50;51.50
28767;DHT22;15921;52.034;20.650;2023-02-28T15:17:46;10.60;52.30
28767;DHT22;15921;52.034;20.650;2023-02-28T15:20:15;9.70;53.30
28767;DHT22;15921;52.034;20.650;2023-02-28T15:22:41;8.90;55.00
28767;DHT22;15921;52.034;20.650;2023-02-28T15:25:14;9.20;55.40
28767;DHT22;15921;52.034;20.650;2023-02-28T15:27:45;8.50;55.90
28767;DHT22;15921;52.034;20.650;2023-02-28T15:30:27;8.00;57.00
28767;DHT22;15921;52.034;20.650;2023-02-28T15:33:19;7.40;58.40
28767;DHT22;15921;52.034;20.650;2023-02-28T15:35:46;6.50;60.00
28767;DHT22;15921;52.034;20.650;2023-02-28T15:38:23;5.70;61.80
28767;DHT22;15921;52.034;20.650;2023-02-28T15:40:55;5.20;63.60
28767;DHT22;15921;52.034;20.650;2023-02-28T15:43:27;4.80;65.00
28767;DHT22;15921;52.034;20.650;2023-02-28T15:46:02;4.30;66.30
28767;DHT22;15921;52.034;20.650;2023-02-28T15:48:42;4.00;67.80
28767;DHT22;15921;52.034;20.650;2023-02-28T15:51:20;3.60;69.20
28767;DHT22;15921;52.034;20.650;2023-02-28T15:53:51;3.40;70.50
28767;DHT22;15921;52.034;20.650;2023-02-28T15:56:38;3.00;72.10
28767;DHT22;15921;52.034;20.650;2023-02-28T15:59:07;2.70;73.00
28767;DHT22;15921;52.034;20.650;2023-02-28T16:01:39;2.50;73.60
28767;DHT22;15921;52.034;20.650;2023-02-28T16:04:19;2.40;74.40
28767;DHT22;15921;52.034;20.650;2023-02-28T16:07:00;2.30;74.80
28767;DHT22;15921;52.034;20.650;2023-02-28T16:09:26;2.20;75.50
28767;DHT22;15921;52.034;20.650;2023-02-28T16:11:59;1.90;76.80
28767;DHT22;15921;52.034;20.650;2023-02-28T16:14:27;1.70;77.50
28767;DHT22;15921;52.034;20.650;2023-02-28T16:16:55;1.60;78.40
28767;DHT22;15921;52.034;20.650;2023-02-28T16:19:22;1.40;78.90
28767;DHT22;15921;52.034;20.650;2023-02-28T16:21:48;1.30;79.50
28767;DHT22;15921;52.034;20.650;2023-02-28T16:24:14;1.20;80.10
28767;DHT22;15921;52.034;20.650;2023-02-28T16:26:46;1.00;80.80
28767;DHT22;15921;52.034;20.650;2023-02-28T16:29:18;0.90;81.40
28767;DHT22;15921;52.034;20.650;2023-02-28T16:31:45;0.70;82.30
28767;DHT22;15921;52.034;20.650;2023-02-28T16:34:11;0.60;82.90
28767;DHT22;15921;52.034;20.650;2023-02-28T16:36:36;0.50;83.30
28767;DHT22;15921;52.034;20.650;2023-02-28T16:39:02;0.30;83.90
28767;DHT22;15921;52.034;20.650;2023-02-28T16:41:28;0.20;84.70
28767;DHT22;15921;52.034;20.650;2023-02-28T16:43:56;0.10;85.70
28767;DHT22;15921;52.034;20.650;2023-02-28T16:46:33;0.00;86.40
28767;DHT22;15921;52.034;20.650;2023-02-28T16:48:59;-0.10;86.80
28767;DHT22;15921;52.034;20.650;2023-02-28T16:51:25;-0.20;87.60
28767;DHT22;15921;52.034;20.650;2023-02-28T16:53:51;-0.30;88.40
28767;DHT22;15921;52.034;20.650;2023-02-28T16:56:22;-0.40;88.70
28767;DHT22;15921;52.034;20.650;2023-02-28T16:58:59;-0.50;90.10
28767;DHT22;15921;52.034;20.650;2023-02-28T17:01:25;-0.60;90.30
28767;DHT22;15921;52.034;20.650;2023-02-28T17:03:53;-0.70;90.70
28767;DHT22;15921;52.034;20.650;2023-02-28T17:06:21;-0.70;90.90
28767;DHT22;15921;52.034;20.650;2023-02-28T17:08:51;-0.80;90.80
28767;DHT22;15921;52.034;20.650;2023-02-28T17:11:17;-0.80;90.80
28767;DHT22;15921;52.034;20.650;2023-02-28T17:13:44;-0.90;91.00
28767;DHT22;15921;52.034;20.650;2023-02-28T17:16:30;-0.90;91.30
28767;DHT22;15921;52.034;20.650;2023-02-28T17:19:06;-1.10;91.50
28767;DHT22;15921;52.034;20.650;2023-02-28T17:21:33;-1.10;91.80
28767;DHT22;15921;52.034;20.650;2023-02-28T17:23:59;-1.20;91.80
28767;DHT22;15921;52.034;20.650;2023-02-28T17:26:26;-1.20;91.90
28767;DHT22;15921;52.034;20.650;2023-02-28T17:28:54;-1.20;92.30
28767;DHT22;15921;52.034;20.650;2023-02-28T17:31:22;-1.30;92.90
28767;DHT22;15921;52.034;20.650;2023-02-28T17:33:47;-1.50;94.00
28767;DHT22;15921;52.034;20.650;2023-02-28T17:36:15;-1.50;94.20
28767;DHT22;15921;52.034;20.650;2023-02-28T17:38:42;-1.50;94.40
28767;DHT22;15921;52.034;20.650;2023-02-28T17:41:11;-1.50;94.60
28767;DHT22;15921;52.034;20.650;2023-02-28T17:43:37;-1.50;94.90
28767;DHT22;15921;52.034;20.650;2023-02-28T17:46:03;-1.60;95.50
28767;DHT22;15921;52.034;20.650;2023-02-28T17:48:31;-1.60;96.10